Portada
METAR-TAF:

METAR-TAF

Aeropuertos :

Aeropuerto Internacional Yundum

Banjul, Gambia

latitud: 13-21N, longitud: 016-48W, altitud: 36 m

Observación

El informe se hizo hace 1 hora y 3 minutos, a las 14:00 UTC
Viento 2 kt con dirección variable
Temperatura 31°C
Humedad 66%
Presión 1012 hPa
Visibilidad 10 km o más
Cielo nuboso a una altura de 1200 ft

METAR: GBYD 141400Z VRB02KT 9999 BKN012 31/24 Q1012

Hora: 15:03 (15:03 UTC)

Pronóstico

El informe se hizo hace 4 horas y 3 minutos, a las 11:00 UTC
Pronóstico válido del 14 a las 12 UTC al 15 a las 18 UTC
Viento 8 kt del oeste-suroeste
Visibilidad 10 km o más
Nubes dispersas a una altura de 1300 ft
Probabilidad 40% :
Temporalmente
del 14 a las 16 UTC al 14 a las 22 UTC
Visibilidad: 4000 m
Cielo nuboso a una altura de 1000 ft
Escasas nubes a una altura de 2000 ft, Cumulonimbus.
tormenta, lluvia,

TAF: GBYD 141100Z 1412/1518 25008KT 9999 SCT013 PROB40 TEMPO 1416/1422 4000 TSRA BKN010 FEW020CB

Observaciones y pronósticos meteorológicos de más de 4000 aeropuertos (mensajes METAR y TAF).

Los puntos amarillos y rojos representan las estaciones disponibles.

Ponga el ratón en el punto deseado para ver el nombre de la estación.

Haga clic para ver las observaciones y los pronósticos meteorológicos.

Para cambiar el mapa : haga clic en los botones verdes con una cruz de color negro para hacer un zoom, en el botón verde con un guión para alejar o en las flechas verdes para mapas adyacentes.


METAR-TAF: